sensor_id;sensor_type;location;lat;lon;timestamp;temperature;humidity
65985;HTU21D;52748;51.112;5.880;2023-12-20T00:01:37;18.38;78.18
65985;HTU21D;52748;51.112;5.880;2023-12-20T00:04:03;18.36;78.18
65985;HTU21D;52748;51.112;5.880;2023-12-20T00:06:29;18.38;78.14
65985;HTU21D;52748;51.112;5.880;2023-12-20T00:08:55;18.36;78.11
65985;HTU21D;52748;51.112;5.880;2023-12-20T00:11:21;18.36;78.13
65985;HTU21D;52748;51.112;5.880;2023-12-20T00:13:47;18.35;78.05
65985;HTU21D;52748;51.112;5.880;2023-12-20T00:16:13;18.35;78.01
65985;HTU21D;52748;51.112;5.880;2023-12-20T00:18:38;18.36;77.89
65985;HTU21D;52748;51.112;5.880;2023-12-20T00:21:04;18.34;78.11
65985;HTU21D;52748;51.112;5.880;2023-12-20T00:23:30;18.34;78.09
65985;HTU21D;52748;51.112;5.880;2023-12-20T00:25:56;18.34;78.00
65985;HTU21D;52748;51.112;5.880;2023-12-20T00:28:22;18.33;77.98
65985;HTU21D;52748;51.112;5.880;2023-12-20T00:30:48;18.33;77.94
65985;HTU21D;52748;51.112;5.880;2023-12-20T00:33:14;18.33;77.93
65985;HTU21D;52748;51.112;5.880;2023-12-20T00:35:40;18.34;77.76
65985;HTU21D;52748;51.112;5.880;2023-12-20T00:38:05;18.32;77.78
65985;HTU21D;52748;51.112;5.880;2023-12-20T00:40:32;18.30;77.77
65985;HTU21D;52748;51.112;5.880;2023-12-20T00:42:58;18.30;77.75
65985;HTU21D;52748;51.112;5.880;2023-12-20T00:45:24;18.30;77.66
65985;HTU21D;52748;51.112;5.880;2023-12-20T00:47:50;18.32;77.72
65985;HTU21D;52748;51.112;5.880;2023-12-20T00:50:16;18.29;77.79
65985;HTU21D;52748;51.112;5.880;2023-12-20T00:52:41;18.29;77.78
65985;HTU21D;52748;51.112;5.880;2023-12-20T00:55:07;18.29;77.61
65985;HTU21D;52748;51.112;5.880;2023-12-20T00:57:34;18.29;77.55
65985;HTU21D;52748;51.112;5.880;2023-12-20T01:00:00;18.28;77.74
65985;HTU21D;52748;51.112;5.880;2023-12-20T01:02:25;18.28;77.67
65985;HTU21D;52748;51.112;5.880;2023-12-20T01:04:51;18.28;77.50
65985;HTU21D;52748;51.112;5.880;2023-12-20T01:07:17;18.29;77.56
65985;HTU21D;52748;51.112;5.880;2023-12-20T01:09:43;18.27;77.63
65985;HTU21D;52748;51.112;5.880;2023-12-20T01:12:08;18.26;77.59
65985;HTU21D;52748;51.112;5.880;2023-12-20T01:14:34;18.27;77.50
65985;HTU21D;52748;51.112;5.880;2023-12-20T01:17:00;18.27;77.38
65985;HTU21D;52748;51.112;5.880;2023-12-20T01:19:25;18.25;77.40
65985;HTU21D;52748;51.112;5.880;2023-12-20T01:21:53;18.25;77.34
65985;HTU21D;52748;51.112;5.880;2023-12-20T01:24:19;18.24;77.28
65985;HTU21D;52748;51.112;5.880;2023-12-20T01:26:44;18.26;77.19
65985;HTU21D;52748;51.112;5.880;2023-12-20T01:29:10;18.24;77.26
65985;HTU21D;52748;51.112;5.880;2023-12-20T01:31:36;18.24;77.24
65985;HTU21D;52748;51.112;5.880;2023-12-20T01:34:02;18.24;77.18
65985;HTU21D;52748;51.112;5.880;2023-12-20T01:36:28;18.23;77.14
65985;HTU21D;52748;51.112;5.880;2023-12-20T01:38:54;18.24;77.05
65985;HTU21D;52748;51.112;5.880;2023-12-20T01:41:20;18.23;77.02
65985;HTU21D;52748;51.112;5.880;2023-12-20T01:43:46;18.22;77.11
65985;HTU21D;52748;51.112;5.880;2023-12-20T01:46:12;18.23;77.09
65985;HTU21D;52748;51.112;5.880;2023-12-20T01:48:38;18.21;77.06
65985;HTU21D;52748;51.112;5.880;2023-12-20T01:51:04;18.21;77.04
65985;HTU21D;52748;51.112;5.880;2023-12-20T01:53:31;18.22;77.05
65985;HTU21D;52748;51.112;5.880;2023-12-20T01:55:58;18.20;76.99
65985;HTU21D;52748;51.112;5.880;2023-12-20T01:58:26;18.21;76.96
65985;HTU21D;52748;51.112;5.880;2023-12-20T02:00:52;18.21;76.92
65985;HTU21D;52748;51.112;5.880;2023-12-20T02:03:18;18.22;76.76
65985;HTU21D;52748;51.112;5.880;2023-12-20T02:05:45;18.20;76.98
65985;HTU21D;52748;51.112;5.880;2023-12-20T02:08:12;18.19;76.93
65985;HTU21D;52748;51.112;5.880;2023-12-20T02:10:38;18.19;76.84
65985;HTU21D;52748;51.112;5.880;2023-12-20T02:13:04;18.20;76.73
65985;HTU21D;52748;51.112;5.880;2023-12-20T02:15:31;18.19;76.83
65985;HTU21D;52748;51.112;5.880;2023-12-20T02:17:57;18.19;76.84
65985;HTU21D;52748;51.112;5.880;2023-12-20T02:20:22;18.19;76.82
65985;HTU21D;52748;51.112;5.880;2023-12-20T02:22:48;18.21;76.64
65985;HTU21D;52748;51.112;5.880;2023-12-20T02:25:14;18.19;76.78
65985;HTU21D;52748;51.112;5.880;2023-12-20T02:27:40;18.18;76.74
65985;HTU21D;52748;51.112;5.880;2023-12-20T02:30:06;18.17;76.63
65985;HTU21D;52748;51.112;5.880;2023-12-20T02:32:32;18.18;76.50
65985;HTU21D;52748;51.112;5.880;2023-12-20T02:34:58;18.21;76.25
65985;HTU21D;52748;51.112;5.880;2023-12-20T02:37:24;18.20;76.35
65985;HTU21D;52748;51.112;5.880;2023-12-20T02:39:50;18.19;76.21
65985;HTU21D;52748;51.112;5.880;2023-12-20T02:42:15;18.20;76.08
65985;HTU21D;52748;51.112;5.880;2023-12-20T02:44:41;18.20;76.05
65985;HTU21D;52748;51.112;5.880;2023-12-20T02:47:07;18.21;76.05
65985;HTU21D;52748;51.112;5.880;2023-12-20T02:49:33;18.19;76.15
65985;HTU21D;52748;51.112;5.880;2023-12-20T02:51:58;18.19;76.07
65985;HTU21D;52748;51.112;5.880;2023-12-20T02:54:24;18.18;75.96
65985;HTU21D;52748;51.112;5.880;2023-12-20T02:56:50;18.17;75.91
65985;HTU21D;52748;51.112;5.880;2023-12-20T02:59:15;18.15;75.85
65985;HTU21D;52748;51.112;5.880;2023-12-20T03:01:44;18.17;75.84
65985;HTU21D;52748;51.112;5.880;2023-12-20T03:04:11;18.17;75.82
65985;HTU21D;52748;51.112;5.880;2023-12-20T03:06:37;18.15;75.75
65985;HTU21D;52748;51.112;5.880;2023-12-20T03:09:03;18.14;75.74
65985;HTU21D;52748;51.112;5.880;2023-12-20T03:11:29;18.13;75.67
65985;HTU21D;52748;51.112;5.880;2023-12-20T03:13:55;18.17;75.64
65985;HTU21D;52748;51.112;5.880;2023-12-20T03:16:21;18.14;75.76
65985;HTU21D;52748;51.112;5.880;2023-12-20T03:18:47;18.13;75.74
65985;HTU21D;52748;51.112;5.880;2023-12-20T03:21:13;18.14;75.67
65985;HTU21D;52748;51.112;5.880;2023-12-20T03:23:40;18.15;75.55
65985;HTU21D;52748;51.112;5.880;2023-12-20T03:26:09;18.13;75.75
65985;HTU21D;52748;51.112;5.880;2023-12-20T03:28:36;18.11;75.70
65985;HTU21D;52748;51.112;5.880;2023-12-20T03:31:02;18.12;75.61
65985;HTU21D;52748;51.112;5.880;2023-12-20T03:33:29;18.12;75.52
65985;HTU21D;52748;51.112;5.880;2023-12-20T03:35:54;18.12;75.46
65985;HTU21D;52748;51.112;5.880;2023-12-20T03:38:21;18.11;75.41
65985;HTU21D;52748;51.112;5.880;2023-12-20T03:40:47;18.11;75.35
65985;HTU21D;52748;51.112;5.880;2023-12-20T03:43:13;18.12;75.22
65985;HTU21D;52748;51.112;5.880;2023-12-20T03:45:39;18.11;75.40
65985;HTU21D;52748;51.112;5.880;2023-12-20T03:48:08;18.10;75.28
65985;HTU21D;52748;51.112;5.880;2023-12-20T03:50:34;18.10;75.34
65985;HTU21D;52748;51.112;5.880;2023-12-20T03:53:02;18.10;75.17
65985;HTU21D;52748;51.112;5.880;2023-12-20T03:55:29;18.10;75.20
65985;HTU21D;52748;51.112;5.880;2023-12-20T03:57:55;18.11;75.12
65985;HTU21D;52748;51.112;5.880;2023-12-20T04:00:22;18.09;75.32
65985;HTU21D;52748;51.112;5.880;2023-12-20T04:02:48;18.08;75.26
65985;HTU21D;52748;51.112;5.880;2023-12-20T04:05:16;18.08;75.19
65985;HTU21D;52748;51.112;5.880;2023-12-20T04:07:42;18.07;75.14
65985;HTU21D;52748;51.112;5.880;2023-12-20T04:10:08;18.08;75.10
65985;HTU21D;52748;51.112;5.880;2023-12-20T04:12:34;18.06;75.06
65985;HTU21D;52748;51.112;5.880;2023-12-20T04:15:00;18.07;75.00
65985;HTU21D;52748;51.112;5.880;2023-12-20T04:17:26;18.09;74.89
65985;HTU21D;52748;51.112;5.880;2023-12-20T04:19:52;18.07;75.06
65985;HTU21D;52748;51.112;5.880;2023-12-20T04:22:18;18.07;74.99
65985;HTU21D;52748;51.112;5.880;2023-12-20T04:24:44;18.06;74.96
65985;HTU21D;52748;51.112;5.880;2023-12-20T04:27:11;18.08;74.78
65985;HTU21D;52748;51.112;5.880;2023-12-20T04:29:37;18.06;74.91
65985;HTU21D;52748;51.112;5.880;2023-12-20T04:32:05;18.05;74.90
65985;HTU21D;52748;51.112;5.880;2023-12-20T04:34:31;18.04;74.85
65985;HTU21D;52748;51.112;5.880;2023-12-20T04:36:56;18.06;74.73
65985;HTU21D;52748;51.112;5.880;2023-12-20T04:39:22;18.06;74.61
65985;HTU21D;52748;51.112;5.880;2023-12-20T04:41:48;18.04;74.72
65985;HTU21D;52748;51.112;5.880;2023-12-20T04:44:15;18.04;74.72
65985;HTU21D;52748;51.112;5.880;2023-12-20T04:46:41;18.06;74.57
65985;HTU21D;52748;51.112;5.880;2023-12-20T04:49:07;18.04;74.73
65985;HTU21D;52748;51.112;5.880;2023-12-20T04:51:35;18.03;74.76
65985;HTU21D;52748;51.112;5.880;2023-12-20T04:54:04;18.04;74.58
65985;HTU21D;52748;51.112;5.880;2023-12-20T04:56:30;18.04;74.62
65985;HTU21D;52748;51.112;5.880;2023-12-20T04:58:56;18.02;74.62
65985;HTU21D;52748;51.112;5.880;2023-12-20T05:01:22;18.03;74.59
65985;HTU21D;52748;51.112;5.880;2023-12-20T05:03:48;18.02;74.58
65985;HTU21D;52748;51.112;5.880;2023-12-20T05:06:14;18.00;74.51
65985;HTU21D;52748;51.112;5.880;2023-12-20T05:08:40;17.99;74.46
65985;HTU21D;52748;51.112;5.880;2023-12-20T05:11:06;18.00;74.41
65985;HTU21D;52748;51.112;5.880;2023-12-20T05:13:32;18.00;74.41
65985;HTU21D;52748;51.112;5.880;2023-12-20T05:15:58;17.99;74.35
65985;HTU21D;52748;51.112;5.880;2023-12-20T05:18:24;18.00;74.35
65985;HTU21D;52748;51.112;5.880;2023-12-20T05:20:51;17.99;74.32
65985;HTU21D;52748;51.112;5.880;2023-12-20T05:23:17;17.98;74.30
65985;HTU21D;52748;51.112;5.880;2023-12-20T05:25:43;17.99;74.26
65985;HTU21D;52748;51.112;5.880;2023-12-20T05:28:09;17.98;74.15
65985;HTU21D;52748;51.112;5.880;2023-12-20T05:30:35;18.00;74.08
65985;HTU21D;52748;51.112;5.880;2023-12-20T05:33:00;17.98;74.26
65985;HTU21D;52748;51.112;5.880;2023-12-20T05:35:26;17.98;74.28
65985;HTU21D;52748;51.112;5.880;2023-12-20T05:37:52;17.97;74.25
65985;HTU21D;52748;51.112;5.880;2023-12-20T05:40:18;17.99;74.06
65985;HTU21D;52748;51.112;5.880;2023-12-20T05:42:46;17.98;74.17
65985;HTU21D;52748;51.112;5.880;2023-12-20T05:45:14;17.96;74.25
65985;HTU21D;52748;51.112;5.880;2023-12-20T05:47:40;17.97;74.22
65985;HTU21D;52748;51.112;5.880;2023-12-20T05:50:06;17.96;74.14
65985;HTU21D;52748;51.112;5.880;2023-12-20T05:52:32;17.95;74.15
65985;HTU21D;52748;51.112;5.880;2023-12-20T05:54:58;17.97;73.99
65985;HTU21D;52748;51.112;5.880;2023-12-20T05:57:30;17.97;74.06
65985;HTU21D;52748;51.112;5.880;2023-12-20T05:59:56;17.96;74.09
65985;HTU21D;52748;51.112;5.880;2023-12-20T06:02:22;17.96;74.09
65985;HTU21D;52748;51.112;5.880;2023-12-20T06:04:48;17.97;74.06
65985;HTU21D;52748;51.112;5.880;2023-12-20T06:07:14;17.98;74.08
65985;HTU21D;52748;51.112;5.880;2023-12-20T06:09:40;17.99;74.11
65985;HTU21D;52748;51.112;5.880;2023-12-20T06:12:07;18.00;74.16
65985;HTU21D;52748;51.112;5.880;2023-12-20T06:14:34;18.00;74.24
65985;HTU21D;52748;51.112;5.880;2023-12-20T06:17:03;18.03;74.38
65985;HTU21D;52748;51.112;5.880;2023-12-20T06:19:28;18.03;74.44
65985;HTU21D;52748;51.112;5.880;2023-12-20T06:21:54;18.05;74.44
65985;HTU21D;52748;51.112;5.880;2023-12-20T06:24:23;18.06;74.89
65985;HTU21D;52748;51.112;5.880;2023-12-20T06:26:53;18.08;75.09
65985;HTU21D;52748;51.112;5.880;2023-12-20T06:29:18;18.09;75.44
65985;HTU21D;52748;51.112;5.880;2023-12-20T06:31:44;18.11;75.30
65985;HTU21D;52748;51.112;5.880;2023-12-20T06:34:10;18.12;75.23
65985;HTU21D;52748;51.112;5.880;2023-12-20T06:36:36;18.15;76.89
65985;HTU21D;52748;51.112;5.880;2023-12-20T06:39:02;18.15;77.63
65985;HTU21D;52748;51.112;5.880;2023-12-20T06:41:30;18.19;78.19
65985;HTU21D;52748;51.112;5.880;2023-12-20T06:43:56;18.20;78.46
65985;HTU21D;52748;51.112;5.880;2023-12-20T06:46:22;18.21;76.48
65985;HTU21D;52748;51.112;5.880;2023-12-20T06:48:48;18.20;75.34
65985;HTU21D;52748;51.112;5.880;2023-12-20T06:51:15;18.21;74.82
65985;HTU21D;52748;51.112;5.880;2023-12-20T06:53:44;18.21;74.64
65985;HTU21D;52748;51.112;5.880;2023-12-20T06:56:11;18.21;74.74
65985;HTU21D;52748;51.112;5.880;2023-12-20T06:58:38;18.23;74.69
65985;HTU21D;52748;51.112;5.880;2023-12-20T07:01:04;18.20;74.95
65985;HTU21D;52748;51.112;5.880;2023-12-20T07:03:30;18.19;75.27
65985;HTU21D;52748;51.112;5.880;2023-12-20T07:05:56;18.19;75.18
65985;HTU21D;52748;51.112;5.880;2023-12-20T07:08:22;18.21;75.25
65985;HTU21D;52748;51.112;5.880;2023-12-20T07:10:48;18.20;71.56
65985;HTU21D;52748;51.112;5.880;2023-12-20T07:13:14;18.08;68.17
65985;HTU21D;52748;51.112;5.880;2023-12-20T07:15:40;18.03;69.79
65985;HTU21D;52748;51.112;5.880;2023-12-20T07:18:06;18.03;71.35
65985;HTU21D;52748;51.112;5.880;2023-12-20T07:20:35;18.03;72.83
65985;HTU21D;52748;51.112;5.880;2023-12-20T07:23:01;18.03;73.68
65985;HTU21D;52748;51.112;5.880;2023-12-20T07:25:28;18.04;74.15
65985;HTU21D;52748;51.112;5.880;2023-12-20T07:27:54;18.04;74.45
65985;HTU21D;52748;51.112;5.880;2023-12-20T07:30:19;18.06;74.43
65985;HTU21D;52748;51.112;5.880;2023-12-20T07:32:45;18.07;74.54
65985;HTU21D;52748;51.112;5.880;2023-12-20T07:35:13;18.06;74.83
65985;HTU21D;52748;51.112;5.880;2023-12-20T07:37:41;18.07;74.85
65985;HTU21D;52748;51.112;5.880;2023-12-20T07:40:07;18.07;74.77
65985;HTU21D;52748;51.112;5.880;2023-12-20T07:42:36;18.07;74.77
65985;HTU21D;52748;51.112;5.880;2023-12-20T07:45:03;18.07;74.93
65985;HTU21D;52748;51.112;5.880;2023-12-20T07:47:29;18.07;74.99
65985;HTU21D;52748;51.112;5.880;2023-12-20T07:49:54;18.08;74.99
65985;HTU21D;52748;51.112;5.880;2023-12-20T07:52:20;18.09;74.81
65985;HTU21D;52748;51.112;5.880;2023-12-20T07:54:48;18.09;74.96
65985;HTU21D;52748;51.112;5.880;2023-12-20T07:57:14;18.09;74.95
65985;HTU21D;52748;51.112;5.880;2023-12-20T07:59:44;18.08;75.06
65985;HTU21D;52748;51.112;5.880;2023-12-20T08:02:10;18.09;74.89
65985;HTU21D;52748;51.112;5.880;2023-12-20T08:04:36;18.07;74.89
65985;HTU21D;52748;51.112;5.880;2023-12-20T08:07:03;18.09;74.76
65985;HTU21D;52748;51.112;5.880;2023-12-20T08:09:29;18.09;75.00
65985;HTU21D;52748;51.112;5.880;2023-12-20T08:11:55;18.08;74.90
65985;HTU21D;52748;51.112;5.880;2023-12-20T08:14:21;18.08;74.92
65985;HTU21D;52748;51.112;5.880;2023-12-20T08:16:47;18.08;74.80
65985;HTU21D;52748;51.112;5.880;2023-12-20T08:19:13;18.08;74.76
65985;HTU21D;52748;51.112;5.880;2023-12-20T08:21:39;18.04;68.15
65985;HTU21D;52748;51.112;5.880;2023-12-20T08:24:05;17.87;64.37
65985;HTU21D;52748;51.112;5.880;2023-12-20T08:26:32;17.72;65.07
65985;HTU21D;52748;51.112;5.880;2023-12-20T08:28:58;17.60;65.69
65985;HTU21D;52748;51.112;5.880;2023-12-20T08:31:24;17.48;66.66
65985;HTU21D;52748;51.112;5.880;2023-12-20T08:33:50;17.38;67.46
65985;HTU21D;52748;51.112;5.880;2023-12-20T08:36:16;17.31;68.23
65985;HTU21D;52748;51.112;5.880;2023-12-20T08:38:43;17.25;68.79
65985;HTU21D;52748;51.112;5.880;2023-12-20T08:41:09;17.22;70.23
65985;HTU21D;52748;51.112;5.880;2023-12-20T08:43:35;17.29;71.83
65985;HTU21D;52748;51.112;5.880;2023-12-20T08:46:02;17.39;72.63
65985;HTU21D;52748;51.112;5.880;2023-12-20T08:48:28;17.49;72.86
65985;HTU21D;52748;51.112;5.880;2023-12-20T08:50:54;17.56;72.87
65985;HTU21D;52748;51.112;5.880;2023-12-20T08:53:20;17.65;72.70
65985;HTU21D;52748;51.112;5.880;2023-12-20T08:55:47;17.72;72.60
65985;HTU21D;52748;51.112;5.880;2023-12-20T08:58:13;17.77;72.83
65985;HTU21D;52748;51.112;5.880;2023-12-20T09:00:39;17.82;72.90
65985;HTU21D;52748;51.112;5.880;2023-12-20T09:03:05;17.87;72.96
65985;HTU21D;52748;51.112;5.880;2023-12-20T09:05:31;17.90;73.05
65985;HTU21D;52748;51.112;5.880;2023-12-20T09:07:57;17.93;73.12
65985;HTU21D;52748;51.112;5.880;2023-12-20T09:10:23;17.96;73.12
65985;HTU21D;52748;51.112;5.880;2023-12-20T09:12:52;17.99;73.09
65985;HTU21D;52748;51.112;5.880;2023-12-20T09:15:26;18.02;73.28
65985;HTU21D;52748;51.112;5.880;2023-12-20T09:17:53;18.03;73.25
65985;HTU21D;52748;51.112;5.880;2023-12-20T09:20:19;18.07;73.20
65985;HTU21D;52748;51.112;5.880;2023-12-20T09:22:45;18.07;73.27
65985;HTU21D;52748;51.112;5.880;2023-12-20T09:25:11;18.09;73.14
65985;HTU21D;52748;51.112;5.880;2023-12-20T09:27:38;18.09;73.19
65985;HTU21D;52748;51.112;5.880;2023-12-20T09:30:05;18.09;73.13
65985;HTU21D;52748;51.112;5.880;2023-12-20T09:32:31;18.10;73.09
65985;HTU21D;52748;51.112;5.880;2023-12-20T09:34:58;18.12;73.06
65985;HTU21D;52748;51.112;5.880;2023-12-20T09:37:27;18.13;73.03
65985;HTU21D;52748;51.112;5.880;2023-12-20T09:39:54;18.13;73.06
65985;HTU21D;52748;51.112;5.880;2023-12-20T09:42:48;18.13;73.12
65985;HTU21D;52748;51.112;5.880;2023-12-20T09:45:20;18.14;73.15
65985;HTU21D;52748;51.112;5.880;2023-12-20T09:47:49;18.14;73.22
65985;HTU21D;52748;51.112;5.880;2023-12-20T09:50:18;18.15;73.16
65985;HTU21D;52748;51.112;5.880;2023-12-20T09:52:50;18.18;73.06
65985;HTU21D;52748;51.112;5.880;2023-12-20T09:55:20;18.17;73.26
65985;HTU21D;52748;51.112;5.880;2023-12-20T09:57:47;18.18;73.26
65985;HTU21D;52748;51.112;5.880;2023-12-20T10:00:14;18.18;73.19
65985;HTU21D;52748;51.112;5.880;2023-12-20T10:02:48;18.18;73.12
65985;HTU21D;52748;51.112;5.880;2023-12-20T10:05:17;18.18;73.04
65985;HTU21D;52748;51.112;5.880;2023-12-20T10:07:46;18.18;72.97
65985;HTU21D;52748;51.112;5.880;2023-12-20T10:10:13;18.18;72.88
65985;HTU21D;52748;51.112;5.880;2023-12-20T10:12:39;18.18;72.83
65985;HTU21D;52748;51.112;5.880;2023-12-20T10:15:08;18.18;72.77
65985;HTU21D;52748;51.112;5.880;2023-12-20T10:17:36;18.18;72.74
65985;HTU21D;52748;51.112;5.880;2023-12-20T10:20:02;18.19;72.65
65985;HTU21D;52748;51.112;5.880;2023-12-20T10:22:28;18.20;72.73
65985;HTU21D;52748;51.112;5.880;2023-12-20T10:24:56;18.19;72.72
65985;HTU21D;52748;51.112;5.880;2023-12-20T10:27:22;18.17;72.74
65985;HTU21D;52748;51.112;5.880;2023-12-20T10:29:47;18.18;72.54
65985;HTU21D;52748;51.112;5.880;2023-12-20T10:32:26;18.17;69.05
65985;HTU21D;52748;51.112;5.880;2023-12-20T10:34:54;18.13;70.32
65985;HTU21D;52748;51.112;5.880;2023-12-20T10:37:21;18.13;71.75
65985;HTU21D;52748;51.112;5.880;2023-12-20T10:39:52;18.13;72.51
65985;HTU21D;52748;51.112;5.880;2023-12-20T10:42:21;18.15;73.15
65985;HTU21D;52748;51.112;5.880;2023-12-20T10:44:48;18.14;73.61
65985;HTU21D;52748;51.112;5.880;2023-12-20T10:47:15;18.15;73.86
65985;HTU21D;52748;51.112;5.880;2023-12-20T10:49:43;18.15;73.98
65985;HTU21D;52748;51.112;5.880;2023-12-20T10:52:11;18.18;74.03
65985;HTU21D;52748;51.112;5.880;2023-12-20T10:54:38;18.18;74.26
65985;HTU21D;52748;51.112;5.880;2023-12-20T10:57:06;18.18;74.24
65985;HTU21D;52748;51.112;5.880;2023-12-20T10:59:33;18.18;74.37
65985;HTU21D;52748;51.112;5.880;2023-12-20T11:02:03;18.18;74.45
65985;HTU21D;52748;51.112;5.880;2023-12-20T11:04:53;18.18;74.54
65985;HTU21D;52748;51.112;5.880;2023-12-20T11:07:25;18.19;74.54
65985;HTU21D;52748;51.112;5.880;2023-12-20T11:10:21;18.20;74.64
65985;HTU21D;52748;51.112;5.880;2023-12-20T11:12:54;18.21;74.62
65985;HTU21D;52748;51.112;5.880;2023-12-20T11:15:23;18.21;74.76
65985;HTU21D;52748;51.112;5.880;2023-12-20T11:17:59;18.19;74.82
65985;HTU21D;52748;51.112;5.880;2023-12-20T11:20:36;18.21;74.83
65985;HTU21D;52748;51.112;5.880;2023-12-20T11:23:04;18.21;74.84
65985;HTU21D;52748;51.112;5.880;2023-12-20T11:25:46;18.19;74.83
65985;HTU21D;52748;51.112;5.880;2023-12-20T11:28:13;18.22;74.77
65985;HTU21D;52748;51.112;5.880;2023-12-20T11:33:08;18.19;73.13
65985;HTU21D;52748;51.112;5.880;2023-12-20T11:35:37;18.20;72.76
65985;HTU21D;52748;51.112;5.880;2023-12-20T11:38:08;18.19;72.66
65985;HTU21D;52748;51.112;5.880;2023-12-20T11:40:35;18.19;72.87
65985;HTU21D;52748;51.112;5.880;2023-12-20T11:43:01;18.19;73.16
65985;HTU21D;52748;51.112;5.880;2023-12-20T11:45:27;18.19;73.22
65985;HTU21D;52748;51.112;5.880;2023-12-20T11:47:56;18.20;73.03
65985;HTU21D;52748;51.112;5.880;2023-12-20T11:50:24;18.20;73.11
65985;HTU21D;52748;51.112;5.880;2023-12-20T11:52:52;18.18;73.35
65985;HTU21D;52748;51.112;5.880;2023-12-20T11:55:18;18.19;73.69
65985;HTU21D;52748;51.112;5.880;2023-12-20T11:57:44;18.18;73.72
65985;HTU21D;52748;51.112;5.880;2023-12-20T12:00:14;18.20;73.81
65985;HTU21D;52748;51.112;5.880;2023-12-20T12:02:40;18.20;73.89
65985;HTU21D;52748;51.112;5.880;2023-12-20T12:05:09;18.20;73.96
65985;HTU21D;52748;51.112;5.880;2023-12-20T12:07:36;18.20;74.12
65985;HTU21D;52748;51.112;5.880;2023-12-20T12:10:02;18.22;74.18
65985;HTU21D;52748;51.112;5.880;2023-12-20T12:12:29;18.22;74.27
65985;HTU21D;52748;51.112;5.880;2023-12-20T12:14:56;18.21;73.88
65985;HTU21D;52748;51.112;5.880;2023-12-20T12:17:23;18.21;74.56
65985;HTU21D;52748;51.112;5.880;2023-12-20T12:19:49;18.21;75.23
65985;HTU21D;52748;51.112;5.880;2023-12-20T12:22:15;18.21;75.57
65985;HTU21D;52748;51.112;5.880;2023-12-20T12:24:46;18.23;75.73
65985;HTU21D;52748;51.112;5.880;2023-12-20T12:27:13;18.22;75.84
65985;HTU21D;52748;51.112;5.880;2023-12-20T12:29:39;18.23;75.73
65985;HTU21D;52748;51.112;5.880;2023-12-20T12:32:09;18.23;75.54
65985;HTU21D;52748;51.112;5.880;2023-12-20T12:34:36;18.24;73.74
65985;HTU21D;52748;51.112;5.880;2023-12-20T12:37:04;18.21;73.38
65985;HTU21D;52748;51.112;5.880;2023-12-20T12:39:30;18.17;74.70
65985;HTU21D;52748;51.112;5.880;2023-12-20T12:41:56;18.15;76.15
65985;HTU21D;52748;51.112;5.880;2023-12-20T12:44:23;18.13;76.90
65985;HTU21D;52748;51.112;5.880;2023-12-20T12:46:52;18.10;77.29
65985;HTU21D;52748;51.112;5.880;2023-12-20T12:49:20;18.09;77.52
65985;HTU21D;52748;51.112;5.880;2023-12-20T12:51:49;18.07;77.70
65985;HTU21D;52748;51.112;5.880;2023-12-20T12:54:15;18.04;77.82
65985;HTU21D;52748;51.112;5.880;2023-12-20T12:56:44;18.05;76.24
65985;HTU21D;52748;51.112;5.880;2023-12-20T12:59:10;18.04;76.15
65985;HTU21D;52748;51.112;5.880;2023-12-20T13:01:36;18.03;77.23
65985;HTU21D;52748;51.112;5.880;2023-12-20T13:04:02;18.02;77.49
65985;HTU21D;52748;51.112;5.880;2023-12-20T13:06:32;18.03;77.68
65985;HTU21D;52748;51.112;5.880;2023-12-20T13:08:58;18.03;77.99
65985;HTU21D;52748;51.112;5.880;2023-12-20T13:11:24;18.04;77.44
65985;HTU21D;52748;51.112;5.880;2023-12-20T13:13:50;18.04;76.31
65985;HTU21D;52748;51.112;5.880;2023-12-20T13:16:16;18.03;76.38
65985;HTU21D;52748;51.112;5.880;2023-12-20T13:18:42;18.00;74.57
65985;HTU21D;52748;51.112;5.880;2023-12-20T13:21:08;18.02;74.43
65985;HTU21D;52748;51.112;5.880;2023-12-20T13:23:35;18.00;74.90
65985;HTU21D;52748;51.112;5.880;2023-12-20T13:26:02;18.00;75.59
65985;HTU21D;52748;51.112;5.880;2023-12-20T13:28:28;18.00;75.79
65985;HTU21D;52748;51.112;5.880;2023-12-20T13:30:54;18.02;76.02
65985;HTU21D;52748;51.112;5.880;2023-12-20T13:33:20;18.03;76.63
65985;HTU21D;52748;51.112;5.880;2023-12-20T13:35:46;18.04;76.83
65985;HTU21D;52748;51.112;5.880;2023-12-20T13:38:13;18.04;76.89
65985;HTU21D;52748;51.112;5.880;2023-12-20T13:40:39;18.05;76.98
65985;HTU21D;52748;51.112;5.880;2023-12-20T13:43:05;18.06;77.11
65985;HTU21D;52748;51.112;5.880;2023-12-20T13:45:31;18.07;77.52
65985;HTU21D;52748;51.112;5.880;2023-12-20T13:47:58;18.06;77.57
65985;HTU21D;52748;51.112;5.880;2023-12-20T13:50:24;18.07;77.89
65985;HTU21D;52748;51.112;5.880;2023-12-20T13:52:52;18.07;77.65
65985;HTU21D;52748;51.112;5.880;2023-12-20T13:55:17;18.07;77.73
65985;HTU21D;52748;51.112;5.880;2023-12-20T13:57:46;18.08;78.05
65985;HTU21D;52748;51.112;5.880;2023-12-20T14:00:14;18.08;78.32
65985;HTU21D;52748;51.112;5.880;2023-12-20T14:02:41;18.09;77.41
65985;HTU21D;52748;51.112;5.880;2023-12-20T14:05:10;18.09;76.70
65985;HTU21D;52748;51.112;5.880;2023-12-20T14:07:37;18.10;76.46
65985;HTU21D;52748;51.112;5.880;2023-12-20T14:10:03;18.09;76.21
65985;HTU21D;52748;51.112;5.880;2023-12-20T14:12:29;18.07;76.02
65985;HTU21D;52748;51.112;5.880;2023-12-20T14:14:55;18.07;75.95
65985;HTU21D;52748;51.112;5.880;2023-12-20T14:17:22;18.07;75.91
65985;HTU21D;52748;51.112;5.880;2023-12-20T14:19:48;18.05;75.89
65985;HTU21D;52748;51.112;5.880;2023-12-20T14:22:17;18.05;75.77
65985;HTU21D;52748;51.112;5.880;2023-12-20T14:24:43;18.03;75.78
65985;HTU21D;52748;51.112;5.880;2023-12-20T14:27:10;18.05;75.73
65985;HTU21D;52748;51.112;5.880;2023-12-20T14:29:39;18.04;75.71
65985;HTU21D;52748;51.112;5.880;2023-12-20T14:32:06;18.04;75.71
65985;HTU21D;52748;51.112;5.880;2023-12-20T14:34:32;18.04;75.60
65985;HTU21D;52748;51.112;5.880;2023-12-20T14:37:00;18.05;75.67
65985;HTU21D;52748;51.112;5.880;2023-12-20T14:39:26;18.04;75.66
65985;HTU21D;52748;51.112;5.880;2023-12-20T14:41:52;18.04;75.73
65985;HTU21D;52748;51.112;5.880;2023-12-20T14:44:18;18.04;75.81
65985;HTU21D;52748;51.112;5.880;2023-12-20T14:46:44;18.05;75.96
65985;HTU21D;52748;51.112;5.880;2023-12-20T14:49:10;18.04;76.07
65985;HTU21D;52748;51.112;5.880;2023-12-20T14:51:35;18.05;76.18
65985;HTU21D;52748;51.112;5.880;2023-12-20T14:54:03;18.04;76.27
65985;HTU21D;52748;51.112;5.880;2023-12-20T14:56:28;18.05;76.02
65985;HTU21D;52748;51.112;5.880;2023-12-20T14:58:54;18.05;75.95
65985;HTU21D;52748;51.112;5.880;2023-12-20T15:01:20;18.06;75.83
65985;HTU21D;52748;51.112;5.880;2023-12-20T15:03:47;18.05;75.92
65985;HTU21D;52748;51.112;5.880;2023-12-20T15:06:14;18.05;75.94
65985;HTU21D;52748;51.112;5.880;2023-12-20T15:08:40;18.04;75.97
65985;HTU21D;52748;51.112;5.880;2023-12-20T15:11:06;18.06;75.86
65985;HTU21D;52748;51.112;5.880;2023-12-20T15:13:32;18.05;75.86
65985;HTU21D;52748;51.112;5.880;2023-12-20T15:15:58;18.07;75.89